createdAt,value
2019-04-10T00:02:37.646Z,13.55
2019-04-10T00:05:44.442Z,13.38
2019-04-10T00:08:50.953Z,13.47
2019-04-10T00:11:57.065Z,13.54
2019-04-10T00:15:03.104Z,13.55
2019-04-10T00:18:09.577Z,13.50
2019-04-10T00:21:17.526Z,13.59
2019-04-10T00:24:23.963Z,13.62
2019-04-10T00:27:30.420Z,13.55
2019-04-10T00:30:36.182Z,13.62
2019-04-10T00:33:42.963Z,13.36
2019-04-10T00:36:49.143Z,13.50
2019-04-10T00:39:55.105Z,13.55
2019-04-10T00:43:00.795Z,13.27
2019-04-10T00:46:06.547Z,13.47
2019-04-10T00:49:12.228Z,13.58
2019-04-10T00:52:17.895Z,13.48
2019-04-10T00:55:23.851Z,13.49
2019-04-10T00:58:30.217Z,13.58
2019-04-10T01:01:36.307Z,13.63
2019-04-10T01:04:43.085Z,13.37
2019-04-10T01:07:48.767Z,13.22
2019-04-10T01:10:54.743Z,13.42
2019-04-10T01:14:01.231Z,13.37
2019-04-10T01:17:07.017Z,13.32
2019-04-10T01:20:15.588Z,13.14
2019-04-10T01:23:22.508Z,13.34
2019-04-10T01:26:29.678Z,13.39
2019-04-10T01:29:35.700Z,13.17
2019-04-10T01:32:41.859Z,13.42
2019-04-10T01:35:48.739Z,13.44
2019-04-10T01:38:54.875Z,13.41
2019-04-10T01:42:00.676Z,13.47
2019-04-10T01:45:07.195Z,13.23
2019-04-10T01:48:12.982Z,13.35
2019-04-10T01:51:19.205Z,13.19
2019-04-10T01:54:24.945Z,13.12
2019-04-10T01:57:30.655Z,13.09
2019-04-10T02:00:37.558Z,13.08
2019-04-10T02:03:43.231Z,13.31
2019-04-10T02:06:49.555Z,13.22
2019-04-10T02:09:56.187Z,13.17
2019-04-10T02:13:01.979Z,13.17
2019-04-10T02:16:08.239Z,13.36
2019-04-10T02:19:14.328Z,13.35
2019-04-10T02:22:20.426Z,13.15
2019-04-10T02:25:26.186Z,13.32
2019-04-10T02:28:33.275Z,13.33
2019-04-10T02:31:39.577Z,13.03
2019-04-10T02:34:46.799Z,12.96
2019-04-10T02:37:55.522Z,13.07
2019-04-10T02:41:01.638Z,13.26
2019-04-10T02:44:07.989Z,13.20
2019-04-10T02:47:14.689Z,13.14
2019-04-10T02:50:20.796Z,13.05
2019-04-10T02:53:27.656Z,13.18
2019-04-10T02:56:33.466Z,13.21
2019-04-10T02:59:39.789Z,13.21
2019-04-10T03:02:47.737Z,13.27
2019-04-10T03:05:54.221Z,13.26
2019-04-10T03:09:14.780Z,13.14
2019-04-10T03:12:10.569Z,13.32
2019-04-10T03:15:17.285Z,13.18
2019-04-10T03:18:25.104Z,13.15
2019-04-10T03:21:31.305Z,13.14
2019-04-10T03:24:38.034Z,12.86
2019-04-10T03:27:44.794Z,13.01
2019-04-10T03:30:50.914Z,13.04
2019-04-10T03:34:03.584Z,13.07
2019-04-10T03:37:09.687Z,12.88
2019-04-10T03:40:15.595Z,13.08
2019-04-10T03:43:21.611Z,12.88
2019-04-10T03:46:27.735Z,12.98
2019-04-10T03:49:33.925Z,13.05
2019-04-10T03:52:41.162Z,12.86
2019-04-10T03:55:47.339Z,13.00
2019-04-10T03:58:52.986Z,12.75
2019-04-10T04:01:59.631Z,12.81
2019-04-10T04:05:06.531Z,12.84
2019-04-10T04:08:13.111Z,12.73
2019-04-10T04:11:19.698Z,12.42
2019-04-10T04:14:26.775Z,12.70
2019-04-10T04:17:34.003Z,12.88
2019-04-10T04:20:39.684Z,13.09
2019-04-10T04:23:45.355Z,13.14
2019-04-10T04:26:51.169Z,13.01
2019-04-10T04:30:00.757Z,12.93
2019-04-10T04:33:08.826Z,13.07
2019-04-10T04:36:14.490Z,13.04
2019-04-10T04:39:26.191Z,12.89
2019-04-10T04:42:28.436Z,12.64
2019-04-10T04:45:35.540Z,12.80
2019-04-10T04:48:41.285Z,12.98
2019-04-10T04:51:48.026Z,12.96
2019-04-10T04:54:53.790Z,13.04
2019-04-10T04:57:59.857Z,12.86
2019-04-10T05:01:06.303Z,12.83
2019-04-10T05:04:13.069Z,13.12
2019-04-10T05:07:18.931Z,13.17
2019-04-10T05:10:25.238Z,13.34
2019-04-10T05:13:31.337Z,13.32
2019-04-10T05:16:37.644Z,13.36
2019-04-10T05:19:43.360Z,13.41
2019-04-10T05:22:50.061Z,13.38
2019-04-10T05:25:56.471Z,13.34
2019-04-10T05:29:02.641Z,13.22
2019-04-10T05:32:09.287Z,13.27
2019-04-10T05:35:15.257Z,13.32
2019-04-10T05:38:21.155Z,13.09
2019-04-10T05:41:26.821Z,13.10
2019-04-10T05:44:32.509Z,13.20
2019-04-10T05:47:38.806Z,13.32
2019-04-10T05:50:53.863Z,13.37
2019-04-10T05:54:03.371Z,12.93
2019-04-10T05:57:10.450Z,13.19
2019-04-10T06:00:18.867Z,13.37
2019-04-10T06:03:25.689Z,13.50
2019-04-10T06:06:32.537Z,13.61
2019-04-10T06:09:38.623Z,13.47
2019-04-10T06:12:44.888Z,13.40
2019-04-10T06:15:50.912Z,13.73
2019-04-10T06:18:59.787Z,13.62
2019-04-10T06:22:05.725Z,13.77
2019-04-10T06:25:13.944Z,13.93
2019-04-10T06:28:19.910Z,13.88
2019-04-10T06:31:25.601Z,13.89
2019-04-10T06:34:32.272Z,13.69
2019-04-10T06:37:38.235Z,13.80
2019-04-10T06:40:44.092Z,14.02
2019-04-10T06:43:49.762Z,14.11
2019-04-10T06:46:55.430Z,14.30
2019-04-10T06:50:02.460Z,14.34
2019-04-10T06:53:08.503Z,14.55
2019-04-10T06:56:14.155Z,14.79
2019-04-10T06:59:19.888Z,14.49
2019-04-10T07:02:29.513Z,14.45
2019-04-10T07:05:40.832Z,14.52
2019-04-10T07:08:46.325Z,14.60
2019-04-10T07:11:53.481Z,14.69
2019-04-10T07:14:58.252Z,14.66
2019-04-10T07:18:08.120Z,14.73
2019-04-10T07:21:14.594Z,14.72
2019-04-10T07:24:20.861Z,14.49
2019-04-10T07:27:27.743Z,14.51
2019-04-10T07:30:34.063Z,14.75
2019-04-10T07:33:40.634Z,14.73
2019-04-10T07:36:46.871Z,14.76
2019-04-10T07:39:53.019Z,14.93
2019-04-10T07:42:59.827Z,14.89
2019-04-10T07:46:05.594Z,14.80
2019-04-10T07:49:11.395Z,14.58
2019-04-10T07:52:19.714Z,14.88
2019-04-10T07:55:25.356Z,14.79
2019-04-10T07:58:31.337Z,14.79
2019-04-10T08:01:40.596Z,15.11
2019-04-10T08:04:48.352Z,15.06
2019-04-10T08:07:56.470Z,14.95
2019-04-10T08:11:02.436Z,14.94
2019-04-10T08:14:08.567Z,15.20
2019-04-10T08:17:14.470Z,15.25
2019-04-10T08:20:20.351Z,15.25
2019-04-10T08:23:26.229Z,15.54
2019-04-10T08:26:32.498Z,15.40
2019-04-10T08:29:39.360Z,15.43
2019-04-10T08:32:53.424Z,15.48
2019-04-10T08:35:52.663Z,15.37
2019-04-10T08:38:59.239Z,15.51
2019-04-10T08:42:05.117Z,15.51
2019-04-10T08:45:11.430Z,15.65
2019-04-10T08:48:17.726Z,15.59
2019-04-10T08:51:23.578Z,15.83
2019-04-10T08:54:29.277Z,15.65
2019-04-10T08:57:36.116Z,15.33
2019-04-10T09:00:42.822Z,15.33
2019-04-10T09:03:48.934Z,15.51
2019-04-10T09:06:55.778Z,15.54
2019-04-10T09:10:01.954Z,15.63
2019-04-10T09:13:10.377Z,15.63
2019-04-10T09:16:16.244Z,15.73
2019-04-10T09:19:22.216Z,15.84
2019-04-10T09:22:30.097Z,15.72
2019-04-10T09:25:35.546Z,15.74
2019-04-10T09:28:42.249Z,15.69
2019-04-10T09:31:48.190Z,15.62
2019-04-10T09:34:53.995Z,15.76
2019-04-10T09:37:59.740Z,15.99
2019-04-10T09:41:05.740Z,16.14
2019-04-10T09:44:12.370Z,16.07
2019-04-10T09:47:18.422Z,16.14
2019-04-10T09:50:25.101Z,16.07
2019-04-10T09:53:31.655Z,16.18
2019-04-10T09:56:38.472Z,16.41
2019-04-10T09:59:45.620Z,16.49
2019-04-10T10:02:52.871Z,16.56
2019-04-10T10:06:00.132Z,16.25
2019-04-10T10:09:08.392Z,16.26
2019-04-10T10:12:14.521Z,16.14
2019-04-10T10:15:21.053Z,16.35
2019-04-10T10:18:27.721Z,16.66
2019-04-10T10:21:34.557Z,16.82
2019-04-10T10:24:40.538Z,16.91
2019-04-10T10:27:46.869Z,17.05
2019-04-10T10:30:52.665Z,17.12
2019-04-10T10:33:58.445Z,17.30
2019-04-10T10:37:10.487Z,17.08
2019-04-10T10:40:17.481Z,16.85
2019-04-10T10:43:24.521Z,17.22
2019-04-10T10:46:31.384Z,16.94
2019-04-10T10:49:37.272Z,17.21
2019-04-10T10:52:43.833Z,16.88
2019-04-10T10:55:49.786Z,17.08
2019-04-10T10:58:57.798Z,16.50
2019-04-10T11:02:02.975Z,16.91
2019-04-10T11:05:09.096Z,17.05
2019-04-10T11:08:18.155Z,17.20
2019-04-10T11:11:25.236Z,17.06
2019-04-10T11:14:31.542Z,17.34
2019-04-10T11:17:38.471Z,17.78
2019-04-10T11:20:48.440Z,17.80
2019-04-10T11:23:55.603Z,17.82
2019-04-10T11:27:02.768Z,18.06
2019-04-10T11:30:10.127Z,17.98
2019-04-10T11:33:17.563Z,18.31
2019-04-10T11:36:24.085Z,18.51
2019-04-10T11:39:35.270Z,18.44
2019-04-10T11:42:40.538Z,18.41
2019-04-10T11:45:52.452Z,18.51
2019-04-10T11:48:55.434Z,18.62
2019-04-10T11:52:03.116Z,18.59
2019-04-10T11:55:16.033Z,18.79
2019-04-10T11:58:18.708Z,18.86
2019-04-10T12:04:44.532Z,18.01
2019-04-10T12:13:54.891Z,18.18
2019-04-10T12:17:01.352Z,18.49
2019-04-10T12:20:07.627Z,18.97
2019-04-10T12:23:13.656Z,19.23
2019-04-10T12:26:19.955Z,19.58
2019-04-10T12:29:26.726Z,19.43
2019-04-10T12:32:32.599Z,19.88
2019-04-10T12:35:38.649Z,20.02
2019-04-10T12:38:45.726Z,20.25
2019-04-10T12:41:52.001Z,20.09
2019-04-10T12:44:57.895Z,20.22
2019-04-10T12:48:04.152Z,20.59
2019-04-10T12:51:10.504Z,20.24
2019-04-10T12:54:17.197Z,19.99
2019-04-10T12:57:24.946Z,19.92
2019-04-10T13:00:31.644Z,19.01
2019-04-10T13:03:38.934Z,18.55
2019-04-10T13:06:46.433Z,18.53
2019-04-10T13:09:52.249Z,18.52
2019-04-10T13:12:57.987Z,18.56
2019-04-10T13:16:03.780Z,18.05
2019-04-10T13:19:09.641Z,18.02
2019-04-10T13:22:15.913Z,18.05
2019-04-10T13:25:22.060Z,18.13
2019-04-10T13:28:27.771Z,18.16
2019-04-10T13:31:33.603Z,18.13
2019-04-10T13:34:39.638Z,18.02
2019-04-10T13:37:45.578Z,17.94
2019-04-10T13:40:52.125Z,18.09
2019-04-10T13:43:58.213Z,18.13
2019-04-10T13:47:05.018Z,18.08
2019-04-10T13:50:12.703Z,18.23
2019-04-10T13:53:18.563Z,18.26
2019-04-10T13:56:25.344Z,18.42
2019-04-10T13:59:31.306Z,18.71
2019-04-10T14:02:37.744Z,18.77
2019-04-10T14:05:43.544Z,19.16
2019-04-10T14:09:07.924Z,19.35
2019-04-10T14:11:57.588Z,19.46
2019-04-10T14:15:04.826Z,19.15
2019-04-10T14:18:12.322Z,19.20
2019-04-10T14:21:18.840Z,19.11
2019-04-10T14:24:26.344Z,18.75
2019-04-10T14:27:33.269Z,19.43
2019-04-10T14:30:40.160Z,19.87
2019-04-10T14:33:46.895Z,20.39
2019-04-10T14:36:52.878Z,20.67
2019-04-10T14:39:58.547Z,20.79
2019-04-10T14:43:05.248Z,20.98
2019-04-10T14:46:12.456Z,20.61
2019-04-10T14:49:18.739Z,20.40
2019-04-10T14:52:25.360Z,20.21
2019-04-10T14:55:32.177Z,19.73
2019-04-10T14:58:39.023Z,19.97
2019-04-10T15:01:44.825Z,20.35
2019-04-10T15:04:51.286Z,20.44
2019-04-10T15:07:57.511Z,20.31
2019-04-10T15:11:04.437Z,20.40
2019-04-10T15:14:11.023Z,20.30
2019-04-10T15:17:17.347Z,19.88
2019-04-10T15:20:22.989Z,19.73
2019-04-10T15:23:29.613Z,19.50
2019-04-10T15:26:36.202Z,19.26
2019-04-10T15:29:43.001Z,19.07
2019-04-10T15:32:49.734Z,18.64
2019-04-10T15:35:55.524Z,18.21
2019-04-10T15:39:02.308Z,17.93
2019-04-10T15:42:09.944Z,17.67
2019-04-10T15:45:15.924Z,17.46
2019-04-10T15:48:22.791Z,17.50
2019-04-10T15:51:30.082Z,17.65
2019-04-10T15:54:36.193Z,17.67
2019-04-10T15:57:49.999Z,17.63
2019-04-10T16:00:50.213Z,17.51
2019-04-10T16:03:56.215Z,17.66
2019-04-10T16:07:02.179Z,17.41
2019-04-10T16:10:31.332Z,17.52
2019-04-10T16:13:39.377Z,17.48
2019-04-10T16:17:04.698Z,17.57
2019-04-10T16:20:31.146Z,17.47
2019-04-10T16:23:44.250Z,17.39
2019-04-10T16:26:50.088Z,17.39
2019-04-10T16:29:56.929Z,17.40
2019-04-10T16:33:03.011Z,17.48
2019-04-10T16:36:08.832Z,17.44
2019-04-10T16:39:17.551Z,17.37
2019-04-10T16:42:24.474Z,17.38
2019-04-10T16:45:30.706Z,17.34
2019-04-10T16:48:36.765Z,17.30
2019-04-10T16:51:42.645Z,17.29
2019-04-10T16:54:49.309Z,17.28
2019-04-10T16:57:55.688Z,17.20
2019-04-10T17:01:02.298Z,17.10
2019-04-10T17:04:09.007Z,17.05
2019-04-10T17:07:14.942Z,17.04
2019-04-10T17:10:24.415Z,17.05
2019-04-10T17:13:30.708Z,17.14
2019-04-10T17:16:37.780Z,17.20
2019-04-10T17:19:49.350Z,17.10
2019-04-10T17:22:52.083Z,16.90
2019-04-10T17:25:58.277Z,16.65
2019-04-10T17:29:05.051Z,16.39
2019-04-10T17:32:12.985Z,16.37
2019-04-10T17:35:21.403Z,16.33
2019-04-10T17:38:30.927Z,16.29
2019-04-10T17:41:41.725Z,16.15
2019-04-10T17:44:47.881Z,15.97
2019-04-10T17:47:54.971Z,15.93
2019-04-10T17:51:01.614Z,15.91
2019-04-10T17:54:07.500Z,15.66
2019-04-10T17:57:13.263Z,15.63
2019-04-10T18:01:12.560Z,15.72
2019-04-10T18:04:26.322Z,15.66
2019-04-10T18:07:32.263Z,15.62
2019-04-10T18:10:46.419Z,15.50
2019-04-10T18:13:46.807Z,15.35
2019-04-10T18:16:54.002Z,15.47
2019-04-10T18:20:00.752Z,15.40
2019-04-10T18:23:07.149Z,15.42
2019-04-10T18:26:14.170Z,15.54
2019-04-10T18:29:21.088Z,15.30
2019-04-10T18:32:26.963Z,15.43
2019-04-10T18:35:33.672Z,15.38
2019-04-10T18:38:39.619Z,15.39
2019-04-10T18:41:46.474Z,15.36
2019-04-10T18:44:53.256Z,15.28
2019-04-10T18:47:59.060Z,15.41
2019-04-10T18:51:06.659Z,15.43
2019-04-10T18:54:12.472Z,15.43
2019-04-10T18:57:18.330Z,15.44
2019-04-10T19:00:46.238Z,15.24
2019-04-10T19:04:05.944Z,15.12
2019-04-10T19:07:11.707Z,14.98
2019-04-10T19:10:17.851Z,14.98
2019-04-10T19:13:24.820Z,14.88
2019-04-10T19:16:30.717Z,15.05
2019-04-10T19:19:40.368Z,15.10
2019-04-10T19:22:44.679Z,15.18
2019-04-10T19:25:51.218Z,15.03
2019-04-10T19:28:57.557Z,15.03
2019-04-10T19:32:05.638Z,15.01
2019-04-10T19:35:11.412Z,15.12
2019-04-10T19:38:17.224Z,15.20
2019-04-10T19:41:29.710Z,15.30
2019-04-10T19:44:30.872Z,14.88
2019-04-10T19:47:38.731Z,14.95
2019-04-10T19:50:45.640Z,14.95
2019-04-10T19:53:51.348Z,14.92
2019-04-10T19:56:57.129Z,15.01
2019-04-10T20:00:02.825Z,15.01
2019-04-10T20:03:08.887Z,14.96
2019-04-10T20:06:14.611Z,15.01
2019-04-10T20:09:20.808Z,15.01
2019-04-10T20:12:26.812Z,15.04
2019-04-10T20:15:32.566Z,15.01
2019-04-10T20:18:39.018Z,14.76
2019-04-10T20:21:44.742Z,14.76
2019-04-10T20:24:51.910Z,14.68
2019-04-10T20:27:58.492Z,14.44
2019-04-10T20:31:06.984Z,14.45
2019-04-10T20:34:13.631Z,14.40
2019-04-10T20:37:20.680Z,14.40
2019-04-10T20:40:27.582Z,14.39
2019-04-10T20:43:33.760Z,14.45
2019-04-10T20:46:39.618Z,14.22
2019-04-10T20:49:45.366Z,14.34
2019-04-10T20:52:51.573Z,14.35
2019-04-10T20:55:57.820Z,14.44
2019-04-10T20:59:03.655Z,14.19
2019-04-10T21:02:09.781Z,14.24
2019-04-10T21:05:17.899Z,14.24
2019-04-10T21:08:23.698Z,14.21
2019-04-10T21:11:29.360Z,14.34
2019-04-10T21:14:35.887Z,14.34
2019-04-10T21:17:42.449Z,14.28
2019-04-10T21:20:49.147Z,14.14
2019-04-10T21:23:56.405Z,14.22
2019-04-10T21:27:03.343Z,14.18
2019-04-10T21:30:44.535Z,14.31
2019-04-10T21:34:07.783Z,14.27
2019-04-10T21:37:13.639Z,14.52
2019-04-10T21:40:19.272Z,14.59
2019-04-10T21:43:26.138Z,14.46
2019-04-10T21:46:32.614Z,14.29
2019-04-10T21:49:38.386Z,14.41
2019-04-10T21:52:44.137Z,14.41
2019-04-10T21:55:49.821Z,14.48
2019-04-10T21:58:55.516Z,14.34
2019-04-10T22:02:01.268Z,14.38
2019-04-10T22:05:08.166Z,14.22
2019-04-10T22:08:23.274Z,14.36
2019-04-10T22:11:30.802Z,14.36
2019-04-10T22:14:36.594Z,14.49
2019-04-10T22:17:42.687Z,14.46
2019-04-10T22:20:48.478Z,14.48
2019-04-10T22:23:54.165Z,14.50
2019-04-10T22:27:00.844Z,14.46
2019-04-10T22:30:08.361Z,14.46
2019-04-10T22:33:14.402Z,14.49
2019-04-10T22:36:20.753Z,14.57
2019-04-10T22:39:27.456Z,14.58
2019-04-10T22:42:40.120Z,14.15
2019-04-10T22:45:40.625Z,14.15
2019-04-10T22:48:46.420Z,14.34
2019-04-10T22:51:52.158Z,14.18
2019-04-10T22:54:57.847Z,14.47
2019-04-10T22:58:04.516Z,14.40
2019-04-10T23:01:13.143Z,14.46
2019-04-10T23:04:20.194Z,14.34
2019-04-10T23:07:26.118Z,14.34
2019-04-10T23:10:31.753Z,14.34
2019-04-10T23:13:38.299Z,14.24
2019-04-10T23:16:44.265Z,14.34
2019-04-10T23:19:50.381Z,14.45
2019-04-10T23:22:56.748Z,14.39
2019-04-10T23:26:02.693Z,14.27
2019-04-10T23:29:08.503Z,14.47
2019-04-10T23:32:15.213Z,14.70
2019-04-10T23:35:21.282Z,14.95
2019-04-10T23:38:27.776Z,14.95
2019-04-10T23:41:33.767Z,14.33
2019-04-10T23:44:39.394Z,14.64
2019-04-10T23:47:46.436Z,14.45
2019-04-10T23:50:52.386Z,14.43
2019-04-10T23:53:58.144Z,14.67
2019-04-10T23:57:03.799Z,14.72
